Time;durP1;ratioP1;P1;durP2;ratioP2;P2;SDS_P1;SDS_P2;PMS_P1;PMS_P2;Temp;Humidity;BMP_temperature;BMP_pressure;BME280_temperature;BME280_humidity;BME280_pressure;Samples;Min_cycle;Max_cycle;Signal;HPM_P1;HPM_P2
2023/04/04 00:00:11;;;;;;;;;;;;;;;;;;5034561;28;7087;-65
2023/04/04 00:02:36;;;;;;;;;;;;;;;;;;5034432;28;7140;-65
2023/04/04 00:05:03;;;;;;;;;;;;;;;;;;5034574;28;7028;-65
2023/04/04 00:10:48;;;;;;;;;;;;;;;;;;5034256;28;6921;-65
2023/04/04 00:13:14;;;;;;;;;;;;;;;;;;5034345;28;6986;-65
2023/04/04 00:16:04;;;;;;;;;;;;;;;;;;5034382;28;7062;-65
2023/04/04 00:18:30;;;;;;;;;;;;;;;;;;5034245;28;7172;-65
2023/04/04 00:20:56;;;;;;;;;;;;;;;;;;5035168;28;7165;-65
2023/04/04 00:23:21;;;;;;;;;;;;;;;;;;5034243;28;7202;-65
2023/04/04 00:25:51;;;;;;;;;;;;;;;;;;5036700;28;7087;-65
2023/04/04 00:28:20;;;;;;;;;;;;;;;;;;5038014;28;7135;-65
2023/04/04 00:30:46;;;;;;;;;;;;;;;;;;5038072;28;7054;-65
2023/04/04 00:36:04;;;;;;;;;;;;;;;;;;5038005;28;7002;-65
2023/04/04 00:41:27;;;;;;;;;;;;;;;;;;5038133;28;7060;-70
2023/04/04 00:44:03;;;;;;;;;;;;;;;;;;5037533;28;7097;-70
2023/04/04 00:46:28;;;;;;;;;;;;;;;;;;5038093;28;7129;-70
2023/04/04 00:49:25;;;;;;;;;;;;;;;;;;5037676;28;7371;-70
2023/04/04 00:51:50;;;;;;;;;;;;;;;;;;5038450;28;7318;-70
2023/04/04 00:54:51;;;;;;;;;;;;;;;;;;5037078;28;8512;-70
2023/04/04 00:57:16;;;;;;;;;;;;;;;;;;5037369;28;7369;-70
2023/04/04 00:59:42;;;;;;;;;;;;;;;;;;5037409;28;6943;-70
2023/04/04 01:02:14;;;;;;;;;;;;;;;;;;5037783;28;7084;-70
2023/04/04 01:04:39;;;;;;;;;;;;;;;;;;5037386;28;7226;-70
2023/04/04 01:07:07;;;;;;;;;;;;;;;;;;5037031;28;7227;-70
2023/04/04 01:09:34;;;;;;;;;;;;;;;;;;5037359;28;6921;-70
2023/04/04 01:15:03;;;;;;;;;;;;;;;;;;5037131;28;7004;-70
2023/04/04 01:17:29;;;;;;;;;;;;;;;;;;5037034;28;7005;-70
2023/04/04 01:20:06;;;;;;;;;;;;;;;;;;5037554;28;6936;-70
2023/04/04 01:22:40;;;;;;;;;;;;;;;;;;5037189;28;7260;-70
2023/04/04 01:25:07;;;;;;;;;;;;;;;;;;5037544;28;7174;-70
2023/04/04 01:27:45;;;;;;;;;;;;;;;;;;5037004;28;7418;-70
2023/04/04 01:33:28;;;;;;;;;;;;;;;;;;5037235;28;6680;-70
2023/04/04 01:45:12;;;;;;;;;;;;;;;;;;5036756;28;6673;-70
2023/04/04 01:47:41;;;;;;;;;;;;;;;;;;5036602;28;7202;-70
2023/04/04 01:53:22;;;;;;;;;;;;;;;;;;5036283;28;6685;-70
2023/04/04 01:55:48;;;;;;;;;;;;;;;;;;5036497;28;7006;-70
2023/04/04 01:58:46;;;;;;;;;;;;;;;;;;5036297;28;7386;-70
2023/04/04 02:01:11;;;;;;;;;;;;;;;;;;5036480;28;7044;-70
2023/04/04 02:03:46;;;;;;;;;;;;;;;;;;5036341;28;7078;-70
2023/04/04 02:06:12;;;;;;;;;;;;;;;;;;5036102;28;6831;-70
2023/04/04 02:08:52;;;;;;;;;;;;;;;;;;5036168;28;7100;-70
2023/04/04 02:11:21;;;;;;;;;;;;;;;;;;5036273;28;7238;-70
2023/04/04 02:16:54;;;;;;;;;;;;;;;;;;5035752;28;6899;-70
2023/04/04 02:19:19;;;;;;;;;;;;;;;;;;5036266;28;7070;-70
2023/04/04 02:21:45;;;;;;;;;;;;;;;;;;5036555;28;7381;-70
2023/04/04 02:24:10;;;;;;;;;;;;;;;;;;5035823;28;7096;-70
2023/04/04 02:26:42;;;;;;;;;;;;;;;;;;5035511;28;7218;-70
2023/04/04 02:29:07;;;;;;;;;;;;;;;;;;5035792;28;7264;-70
2023/04/04 02:35:10;;;;;;;;;;;;;;;;;;5035460;28;6933;-70
2023/04/04 02:40:40;;;;;;;;;;;;;;;;;;5035557;28;6693;-70
2023/04/04 02:43:06;;;;;;;;;;;;;;;;;;5035565;28;7068;-70
2023/04/04 02:45:31;;;;;;;;;;;;;;;;;;5035216;28;7139;-70
2023/04/04 02:48:12;;;;;;;;;;;;;;;;;;5036180;28;7013;-70
2023/04/04 02:50:38;;;;;;;;;;;;;;;;;;5035192;28;7200;-70
2023/04/04 02:53:12;;;;;;;;;;;;;;;;;;5035519;28;7199;-70
2023/04/04 02:55:38;;;;;;;;;;;;;;;;;;5035393;28;6820;-65
2023/04/04 02:58:03;;;;;;;;;;;;;;;;;;5035931;28;7130;-65
2023/04/04 03:00:38;;;;;;;;;;;;;;;;;;5035292;28;7282;-65
2023/04/04 03:03:04;;;;;;;;;;;;;;;;;;5035196;28;6800;-60
2023/04/04 03:05:36;;;;;;;;;;;;;;;;;;5035367;28;6933;-65
2023/04/04 03:08:03;;;;;;;;;;;;;;;;;;5035276;28;7651;-65
2023/04/04 03:10:43;;;;;;;;;;;;;;;;;;5034941;28;7100;-65
2023/04/04 03:13:09;;;;;;;;;;;;;;;;;;5035001;28;7437;-65
2023/04/04 03:15:34;;;;;;;;;;;;;;;;;;5035159;28;7102;-65
2023/04/04 03:21:03;;;;;;;;;;;;;;;;;;5034709;28;6965;-65
2023/04/04 03:23:28;;;;;;;;;;;;;;;;;;5034897;28;7362;-65
2023/04/04 03:25:56;;;;;;;;;;;;;;;;;;5034915;28;7342;-65
2023/04/04 03:28:22;;;;;;;;;;;;;;;;;;5034427;28;8295;-65
2023/04/04 03:30:48;;;;;;;;;;;;;;;;;;5034837;28;7158;-65
2023/04/04 03:33:14;;;;;;;;;;;;;;;;;;5034736;28;7299;-65
2023/04/04 03:35:57;;;;;;;;;;;;;;;;;;5034560;28;7383;-65
2023/04/04 03:38:22;;;;;;;;;;;;;;;;;;5034368;28;6867;-65
2023/04/04 03:40:48;;;;;;;;;;;;;;;;;;5034732;28;7132;-65
2023/04/04 03:43:14;;;;;;;;;;;;;;;;;;5035536;28;7367;-65
2023/04/04 03:45:40;;;;;;;;;;;;;;;;;;5034779;28;7202;-65
2023/04/04 03:48:06;;;;;;;;;;;;;;;;;;5034625;28;7076;-65
2023/04/04 03:50:31;;;;;;;;;;;;;;;;;;5034727;28;6938;-65
2023/04/04 03:53:02;;;;;;;;;;;;;;;;;;5034516;28;6907;-65
2023/04/04 03:55:28;;;;;;;;;;;;;;;;;;5034526;28;7063;-65
2023/04/04 03:57:59;;;;;;;;;;;;;;;;;;5034726;28;6975;-65
2023/04/04 04:00:25;;;;;;;;;;;;;;;;;;5036289;28;7216;-65
2023/04/04 04:02:50;;;;;;;;;;;;;;;;;;5038554;28;7383;-65
2023/04/04 04:05:16;;;;;;;;;;;;;;;;;;5038501;28;7188;-65
2023/04/04 04:08:13;;;;;;;;;;;;;;;;;;5038436;28;6926;-65
2023/04/04 04:10:39;;;;;;;;;;;;;;;;;;5038481;28;7300;-65
2023/04/04 04:13:32;;;;;;;;;;;;;;;;;;5038170;28;6958;-65
2023/04/04 04:15:57;;;;;;;;;;;;;;;;;;5037948;28;8197;-65
2023/04/04 04:18:23;;;;;;;;;;;;;;;;;;5038068;28;7043;-65
2023/04/04 04:20:48;;;;;;;;;;;;;;;;;;5038360;28;7215;-65
2023/04/04 04:23:14;;;;;;;;;;;;;;;;;;5038544;28;6780;-65
2023/04/04 04:25:39;;;;;;;;;;;;;;;;;;5038051;28;7102;-65
2023/04/04 04:28:05;;;;;;;;;;;;;;;;;;5037972;28;7137;-70
2023/04/04 04:30:30;;;;;;;;;;;;;;;;;;5038111;28;7089;-65
2023/04/04 04:33:19;;;;;;;;;;;;;;;;;;5038028;28;7196;-65
2023/04/04 04:38:48;;;;;;;;;;;;;;;;;;5017847;28;6692;-65
2023/04/04 04:41:21;;;;;;;;;;;;;;;;;;5017799;28;8414;-65
2023/04/04 04:43:47;;;;;;;;;;;;;;;;;;5018070;28;7174;-65
2023/04/04 04:46:48;;;;;;;;;;;;;;;;;;5018146;28;7241;-65
2023/04/04 04:49:14;;;;;;;;;;;;;;;;;;5018006;28;6992;-65
2023/04/04 04:51:41;;;;;;;;;;;;;;;;;;5036984;28;7384;-66
2023/04/04 04:54:07;;;;;;;;;;;;;;;;;;5037748;28;7124;-66
2023/04/04 04:56:38;;;;;;;;;;;;;;;;;;5037477;28;7316;-66
2023/04/04 04:59:06;;;;;;;;;;;;;;;;;;5037453;28;7154;-66
2023/04/04 05:01:31;;;;;;;;;;;;;;;;;;5037356;28;7421;-66
2023/04/04 05:07:03;;;;;;;;;;;;;;;;;;5037075;28;6677;-70
2023/04/04 05:09:28;;;;;;;;;;;;;;;;;;5037338;28;7147;-71
2023/04/04 05:11:59;;;;;;;;;;;;;;;;;;5036932;28;7473;-71
2023/04/04 05:14:25;;;;;;;;;;;;;;;;;;5036947;28;7430;-71
2023/04/04 05:19:53;;;;;;;;;;;;;;;;;;5036903;28;6937;-71
2023/04/04 05:25:52;;;;;;;;;;;;;;;;;;5036571;28;6704;-71
2023/04/04 05:28:19;;;;;;;;;;;;;;;;;;5036573;28;7102;-71
2023/04/04 05:30:56;;;;;;;;;;;;;;;;;;5031427;28;7216;-71
2023/04/04 05:33:22;;;;;;;;;;;;;;;;;;5017273;28;7070;-65
2023/04/04 05:35:48;;;;;;;;;;;;;;;;;;5013761;28;7146;-65
2023/04/04 05:38:13;;;;;;;;;;;;;;;;;;5036359;28;7078;-65
2023/04/04 05:40:49;;;;;;;;;;;;;;;;;;5036811;28;7401;-65
2023/04/04 05:43:14;;;;;;;;;;;;;;;;;;5037285;28;6969;-65
2023/04/04 05:45:40;;;;;;;;;;;;;;;;;;5036577;28;7122;-65
2023/04/04 05:48:05;;;;;;;;;;;;;;;;;;5036528;28;7074;-65
2023/04/04 05:51:02;;;;;;;;;;;;;;;;;;5036533;28;7564;-65
2023/04/04 05:53:28;;;;;;;;;;;;;;;;;;5030298;28;7163;-65
2023/04/04 05:56:09;;;;;;;;;;;;;;;;;;5031760;28;7131;-65
2023/04/04 05:58:35;;;;;;;;;;;;;;;;;;5034863;28;7221;-65
2023/04/04 06:01:09;;;;;;;;;;;;;;;;;;5024314;28;7402;-65
2023/04/04 06:03:35;;;;;;;;;;;;;;;;;;5016129;28;7132;-65
2023/04/04 06:06:11;;;;;;;;;;;;;;;;;;5021034;28;8222;-65
2023/04/04 06:08:37;;;;;;;;;;;;;;;;;;5019877;28;7118;-65
2023/04/04 06:11:02;;;;;;;;;;;;;;;;;;5019175;28;7203;-65
2023/04/04 06:13:27;;;;;;;;;;;;;;;;;;5016506;28;6924;-65
2023/04/04 06:18:56;;;;;;;;;;;;;;;;;;5015942;28;6910;-65
2023/04/04 06:21:21;;;;;;;;;;;;;;;;;;5016289;28;7324;-66
2023/04/04 06:24:23;;;;;;;;;;;;;;;;;;5015642;28;6945;-66
2023/04/04 06:26:50;;;;;;;;;;;;;;;;;;5016029;28;7856;-66
2023/04/04 06:32:33;;;;;;;;;;;;;;;;;;5035649;28;6681;-68
2023/04/04 06:34:59;;;;;;;;;;;;;;;;;;5035771;28;7156;-66
2023/04/04 06:37:25;;;;;;;;;;;;;;;;;;5034192;28;7042;-66
2023/04/04 06:40:08;;;;;;;;;;;;;;;;;;5035979;28;7196;-66
2023/04/04 06:42:33;;;;;;;;;;;;;;;;;;5035321;28;6813;-67
2023/04/04 06:44:59;;;;;;;;;;;;;;;;;;5035616;28;6806;-67
2023/04/04 06:47:24;;;;;;;;;;;;;;;;;;5035690;28;7055;-67
2023/04/04 06:56:05;;;;;;;;;;;;;;;;;;5035223;28;6856;-66
2023/04/04 06:58:31;;;;;;;;;;;;;;;;;;5034898;28;7146;-66
2023/04/04 07:01:04;;;;;;;;;;;;;;;;;;5025761;28;6967;-67
2023/04/04 07:03:30;;;;;;;;;;;;;;;;;;5015437;28;7115;-67
2023/04/04 07:05:56;;;;;;;;;;;;;;;;;;5015323;28;7096;-67
2023/04/04 07:08:21;;;;;;;;;;;;;;;;;;5015019;28;6803;-67
2023/04/04 07:17:22;;;;;;;;;;;;;;;;;;5014895;28;6709;-66
2023/04/04 07:19:47;;;;;;;;;;;;;;;;;;5015402;28;7754;-66
2023/04/04 07:25:28;;;;;;;;;;;;;;;;;;5014890;28;6954;-65
2023/04/04 07:27:54;;;;;;;;;;;;;;;;;;5015480;28;7278;-65
2023/04/04 07:30:25;;;;;;;;;;;;;;;;;;5014918;28;7388;-65
2023/04/04 07:33:01;;;;;;;;;;;;;;;;;;5013754;28;8737;-65
2023/04/04 07:35:27;;;;;;;;;;;;;;;;;;5014418;28;7055;-64
2023/04/04 07:37:53;;;;;;;;;;;;;;;;;;5012882;28;7129;-65
2023/04/04 07:40:31;;;;;;;;;;;;;;;;;;5014972;28;7268;-65
2023/04/04 07:49:02;;;;;;;;;;;;;;;;;;5014654;28;6738;-64
2023/04/04 08:00:37;;;;;;;;;;;;;;;;;;5014598;28;6673;-64
2023/04/04 08:06:17;;;;;;;;;;;;;;;;;;5014469;28;6673;-65
2023/04/04 08:08:43;;;;;;;;;;;;;;;;;;5014674;28;7109;-65
2023/04/04 08:11:45;;;;;;;;;;;;;;;;;;5014755;28;6815;-65
2023/04/04 08:14:11;;;;;;;;;;;;;;;;;;5014640;28;7045;-64
2023/04/04 08:16:37;;;;;;;;;;;;;;;;;;5014614;28;7099;-64
2023/04/04 08:19:06;;;;;;;;;;;;;;;;;;5014119;28;6947;-64
2023/04/04 08:21:32;;;;;;;;;;;;;;;;;;5014322;28;6943;-64
2023/04/04 08:24:21;;;;;;;;;;;;;;;;;;5014461;28;8216;-64
2023/04/04 08:26:47;;;;;;;;;;;;;;;;;;5014531;28;6975;-64
2023/04/04 08:29:15;;;;;;;;;;;;;;;;;;5014583;28;7201;-64
2023/04/04 08:31:41;;;;;;;;;;;;;;;;;;5014510;28;7212;-64
2023/04/04 08:34:07;;;;;;;;;;;;;;;;;;5014784;28;7037;-64
2023/04/04 08:36:46;;;;;;;;;;;;;;;;;;5013857;28;7143;-64
2023/04/04 08:39:13;;;;;;;;;;;;;;;;;;5013830;28;7229;-64
2023/04/04 08:41:44;;;;;;;;;;;;;;;;;;5014401;28;7190;-64
2023/04/04 08:44:19;;;;;;;;;;;;;;;;;;5016642;28;6968;-64
2023/04/04 08:46:44;;;;;;;;;;;;;;;;;;5034418;28;7357;-64
2023/04/04 08:52:18;;;;;;;;;;;;;;;;;;5037734;28;6926;-64
2023/04/04 08:54:50;;;;;;;;;;;;;;;;;;5037646;28;7177;-64
2023/04/04 08:57:15;;;;;;;;;;;;;;;;;;5037408;28;6808;-64
2023/04/04 08:59:49;;;;;;;;;;;;;;;;;;5037587;28;7071;-64
2023/04/04 09:02:28;;;;;;;;;;;;;;;;;;5021623;28;6974;-72
2023/04/04 09:04:55;;;;;;;;;;;;;;;;;;5017833;28;7403;-63
2023/04/04 09:13:14;;;;;;;;;;;;;;;;;;5018520;28;7158;-66
2023/04/04 09:15:44;;;;;;;;;;;;;;;;;;5017608;28;7157;-66
2023/04/04 09:18:28;;;;;;;;;;;;;;;;;;5017085;28;7364;-66
2023/04/04 09:20:54;;;;;;;;;;;;;;;;;;5017443;28;7145;-65
2023/04/04 09:23:22;;;;;;;;;;;;;;;;;;5017984;28;6914;-66
2023/04/04 09:31:54;;;;;;;;;;;;;;;;;;5016975;28;6693;-66
2023/04/04 09:34:20;;;;;;;;;;;;;;;;;;5017809;28;7081;-66
2023/04/04 09:36:47;;;;;;;;;;;;;;;;;;5014875;28;6949;-66
2023/04/04 09:39:16;;;;;;;;;;;;;;;;;;5016970;28;7429;-66
2023/04/04 09:41:46;;;;;;;;;;;;;;;;;;5016999;28;7162;-66
2023/04/04 09:44:12;;;;;;;;;;;;;;;;;;5016722;28;7091;-66
2023/04/04 09:46:38;;;;;;;;;;;;;;;;;;5017738;28;7020;-66
2023/04/04 09:49:04;;;;;;;;;;;;;;;;;;5016556;28;7067;-66
2023/04/04 09:52:07;;;;;;;;;;;;;;;;;;5016865;28;7120;-66
2023/04/04 09:54:34;;;;;;;;;;;;;;;;;;5016706;28;7046;-66
2023/04/04 09:57:00;;;;;;;;;;;;;;;;;;5015979;28;7361;-65
2023/04/04 09:59:53;;;;;;;;;;;;;;;;;;5016217;28;7031;-65
2023/04/04 10:02:19;;;;;;;;;;;;;;;;;;5025072;28;7141;-65
2023/04/04 10:05:00;;;;;;;;;;;;;;;;;;5036331;28;7036;-65
2023/04/04 10:13:35;;;;;;;;;;;;;;;;;;5036050;28;6686;-65
2023/04/04 10:16:02;;;;;;;;;;;;;;;;;;5036225;28;7276;-65
2023/04/04 10:18:51;;;;;;;;;;;;;;;;;;5035990;28;7145;-65
2023/04/04 10:21:17;;;;;;;;;;;;;;;;;;5035824;28;7432;-65
2023/04/04 10:23:45;;;;;;;;;;;;;;;;;;5036092;28;7130;-64
2023/04/04 10:26:11;;;;;;;;;;;;;;;;;;5035697;28;7159;-65
2023/04/04 10:29:00;;;;;;;;;;;;;;;;;;5035763;28;7132;-64
2023/04/04 10:31:28;;;;;;;;;;;;;;;;;;5036237;28;6964;-65
2023/04/04 10:34:12;;;;;;;;;;;;;;;;;;5035792;28;7139;-65
2023/04/04 10:37:07;;;;;;;;;;;;;;;;;;5035543;28;7103;-64
2023/04/04 10:39:51;;;;;;;;;;;;;;;;;;5036015;28;7216;-65
2023/04/04 10:45:20;;;;;;;;;;;;;;;;;;5035412;28;6977;-65
2023/04/04 10:47:46;;;;;;;;;;;;;;;;;;5035493;28;7519;-65
2023/04/04 10:50:21;;;;;;;;;;;;;;;;;;5031264;28;6968;-65
2023/04/04 10:52:48;;;;;;;;;;;;;;;;;;5029186;28;7023;-65
2023/04/04 10:55:44;;;;;;;;;;;;;;;;;;5015266;28;7175;-65
2023/04/04 10:58:11;;;;;;;;;;;;;;;;;;5015433;28;7249;-65
2023/04/04 11:01:02;;;;;;;;;;;;;;;;;;5015415;28;7374;-65
2023/04/04 11:03:32;;;;;;;;;;;;;;;;;;5033732;28;7388;-65
2023/04/04 11:06:26;;;;;;;;;;;;;;;;;;5034822;28;8432;-64
2023/04/04 11:08:54;;;;;;;;;;;;;;;;;;5020244;28;7231;-65
2023/04/04 11:11:25;;;;;;;;;;;;;;;;;;5034874;28;7233;-65
2023/04/04 11:14:09;;;;;;;;;;;;;;;;;;5035928;28;7402;-65
2023/04/04 11:16:46;;;;;;;;;;;;;;;;;;5034630;28;7267;-65
2023/04/04 11:25:49;;;;;;;;;;;;;;;;;;5034772;28;6978;-65
2023/04/04 11:28:24;;;;;;;;;;;;;;;;;;5034532;28;7196;-65
2023/04/04 11:31:10;;;;;;;;;;;;;;;;;;5034996;28;7454;-65
2023/04/04 11:36:39;;;;;;;;;;;;;;;;;;5020489;28;7133;-65
2023/04/04 11:39:06;;;;;;;;;;;;;;;;;;5024889;28;7387;-65
2023/04/04 11:41:51;;;;;;;;;;;;;;;;;;5026058;28;7228;-65
2023/04/04 11:44:17;;;;;;;;;;;;;;;;;;5024180;28;7420;-66
2023/04/04 11:46:46;;;;;;;;;;;;;;;;;;5033935;28;7184;-65
2023/04/04 11:49:13;;;;;;;;;;;;;;;;;;5023469;28;8195;-65
2023/04/04 11:51:39;;;;;;;;;;;;;;;;;;5021266;28;7491;-65
2023/04/04 11:54:26;;;;;;;;;;;;;;;;;;5034513;28;7252;-65
2023/04/04 11:56:52;;;;;;;;;;;;;;;;;;5025196;28;7258;-65
2023/04/04 11:59:19;;;;;;;;;;;;;;;;;;5015311;28;7042;-65
2023/04/04 12:01:48;;;;;;;;;;;;;;;;;;5014894;28;7185;-65
2023/04/04 12:04:21;;;;;;;;;;;;;;;;;;5014709;28;7046;-66
2023/04/04 12:06:52;;;;;;;;;;;;;;;;;;5032700;28;7258;-66
2023/04/04 12:09:19;;;;;;;;;;;;;;;;;;5034402;28;7108;-65
2023/04/04 12:11:56;;;;;;;;;;;;;;;;;;5029713;28;7232;-65
2023/04/04 12:14:24;;;;;;;;;;;;;;;;;;5014752;28;7130;-65
2023/04/04 12:16:51;;;;;;;;;;;;;;;;;;5020849;28;6942;-66
2023/04/04 12:19:20;;;;;;;;;;;;;;;;;;5014285;28;7226;-66
2023/04/04 12:21:46;;;;;;;;;;;;;;;;;;5016703;28;7019;-65
2023/04/04 12:24:13;;;;;;;;;;;;;;;;;;5017903;28;6921;-65
2023/04/04 12:26:43;;;;;;;;;;;;;;;;;;5027144;28;7102;-65
2023/04/04 12:29:10;;;;;;;;;;;;;;;;;;5028277;28;7141;-65
2023/04/04 12:31:38;;;;;;;;;;;;;;;;;;5024914;28;7048;-65
2023/04/04 12:34:26;;;;;;;;;;;;;;;;;;5038026;28;7154;-65
2023/04/04 12:43:01;;;;;;;;;;;;;;;;;;5037626;28;6984;-65
2023/04/04 12:45:27;;;;;;;;;;;;;;;;;;5037679;28;7207;-65
2023/04/04 12:47:53;;;;;;;;;;;;;;;;;;5037806;28;7164;-65
2023/04/04 12:50:20;;;;;;;;;;;;;;;;;;5034689;28;7223;-66
2023/04/04 12:52:51;;;;;;;;;;;;;;;;;;5018004;28;7244;-65
2023/04/04 12:58:21;;;;;;;;;;;;;;;;;;5017473;28;6678;-65
2023/04/04 13:00:50;;;;;;;;;;;;;;;;;;5017764;28;7028;-65
2023/04/04 13:03:19;;;;;;;;;;;;;;;;;;5017861;28;7408;-65
2023/04/04 13:08:49;;;;;;;;;;;;;;;;;;5027018;28;6758;-65
2023/04/04 13:11:33;;;;;;;;;;;;;;;;;;5017237;28;7879;-65
2023/04/04 13:14:01;;;;;;;;;;;;;;;;;;5037200;28;7087;-65
2023/04/04 13:16:29;;;;;;;;;;;;;;;;;;5037033;28;6978;-64
2023/04/04 13:18:56;;;;;;;;;;;;;;;;;;5031949;28;7270;-65
2023/04/04 13:21:22;;;;;;;;;;;;;;;;;;5017418;28;6985;-65
2023/04/04 13:23:47;;;;;;;;;;;;;;;;;;5017255;28;7093;-65
2023/04/04 13:26:20;;;;;;;;;;;;;;;;;;5017379;28;7023;-65
2023/04/04 13:28:45;;;;;;;;;;;;;;;;;;5019358;28;7413;-65
2023/04/04 13:31:12;;;;;;;;;;;;;;;;;;5037017;28;6863;-65
2023/04/04 13:33:56;;;;;;;;;;;;;;;;;;5036489;28;7231;-65
2023/04/04 13:36:21;;;;;;;;;;;;;;;;;;5036592;28;7145;-65
2023/04/04 13:38:46;;;;;;;;;;;;;;;;;;5036283;28;7167;-65
2023/04/04 13:44:15;;;;;;;;;;;;;;;;;;5036572;28;6836;-65
2023/04/04 13:46:47;;;;;;;;;;;;;;;;;;5037355;28;7212;-65
2023/04/04 13:49:13;;;;;;;;;;;;;;;;;;5036784;28;7302;-65
2023/04/04 13:51:38;;;;;;;;;;;;;;;;;;5036733;28;7066;-65
2023/04/04 13:54:04;;;;;;;;;;;;;;;;;;5036612;28;7592;-65
2023/04/04 13:56:34;;;;;;;;;;;;;;;;;;5016969;28;7234;-64
2023/04/04 13:59:00;;;;;;;;;;;;;;;;;;5015410;28;7105;-65
2023/04/04 14:01:34;;;;;;;;;;;;;;;;;;5016284;28;6919;-65
2023/04/04 14:03:59;;;;;;;;;;;;;;;;;;5035559;28;7062;-65
2023/04/04 14:06:25;;;;;;;;;;;;;;;;;;5032008;28;7171;-65
2023/04/04 14:08:51;;;;;;;;;;;;;;;;;;5035793;28;7040;-65
2023/04/04 14:14:18;;;;;;;;;;;;;;;;;;5036636;28;7309;-65
2023/04/04 14:16:52;;;;;;;;;;;;;;;;;;5032094;28;7073;-65
2023/04/04 14:19:17;;;;;;;;;;;;;;;;;;5016303;28;7300;-65
2023/04/04 14:25:12;;;;;;;;;;;;;;;;;;5026821;28;6914;-66
2023/04/04 14:27:37;;;;;;;;;;;;;;;;;;5035651;28;7307;-66
2023/04/04 14:35:49;;;;;;;;;;;;;;;;;;5033527;28;7162;-66
2023/04/04 14:38:17;;;;;;;;;;;;;;;;;;5033838;28;6983;-67
2023/04/04 14:40:42;;;;;;;;;;;;;;;;;;5017190;28;7051;-67
2023/04/04 14:43:08;;;;;;;;;;;;;;;;;;5034987;28;7394;-67
2023/04/04 14:45:33;;;;;;;;;;;;;;;;;;5031538;28;7145;-67
2023/04/04 14:47:59;;;;;;;;;;;;;;;;;;5015733;28;7372;-67
2023/04/04 14:50:25;;;;;;;;;;;;;;;;;;5030752;28;6958;-66
2023/04/04 14:52:51;;;;;;;;;;;;;;;;;;5015420;28;7047;-66
2023/04/04 14:55:18;;;;;;;;;;;;;;;;;;5015555;28;7053;-67
2023/04/04 14:58:00;;;;;;;;;;;;;;;;;;5015840;28;7155;-67
2023/04/04 15:00:25;;;;;;;;;;;;;;;;;;5015650;28;7197;-66
2023/04/04 15:02:51;;;;;;;;;;;;;;;;;;5015608;28;7069;-67
2023/04/04 15:05:18;;;;;;;;;;;;;;;;;;5025498;28;7182;-66
2023/04/04 15:07:52;;;;;;;;;;;;;;;;;;5034087;28;6937;-67
2023/04/04 15:10:18;;;;;;;;;;;;;;;;;;5034210;28;7233;-67
2023/04/04 15:18:56;;;;;;;;;;;;;;;;;;5034230;28;7041;-66
2023/04/04 15:21:22;;;;;;;;;;;;;;;;;;5022740;28;7236;-67
2023/04/04 15:24:22;;;;;;;;;;;;;;;;;;5034996;28;7198;-66
2023/04/04 15:26:47;;;;;;;;;;;;;;;;;;5050292;28;7076;-66
2023/04/04 15:32:05;;;;;;;;;;;;;;;;;;5035400;28;6967;-67
2023/04/04 15:34:31;;;;;;;;;;;;;;;;;;5030735;28;6888;-66
2023/04/04 15:37:08;;;;;;;;;;;;;;;;;;5034637;28;7445;-66
2023/04/04 15:39:34;;;;;;;;;;;;;;;;;;5033164;28;6967;-67
2023/04/04 15:44:51;;;;;;;;;;;;;;;;;;5018525;28;6758;-66
2023/04/04 15:50:32;;;;;;;;;;;;;;;;;;5034406;28;7016;-66
2023/04/04 15:52:57;;;;;;;;;;;;;;;;;;5034373;28;7145;-67
2023/04/04 15:58:34;;;;;;;;;;;;;;;;;;5038321;28;6925;-66
2023/04/04 16:00:59;;;;;;;;;;;;;;;;;;5038263;28;7453;-66
2023/04/04 16:03:26;;;;;;;;;;;;;;;;;;5037414;28;8401;-67
2023/04/04 16:05:52;;;;;;;;;;;;;;;;;;5037803;28;7276;-67
2023/04/04 16:08:17;;;;;;;;;;;;;;;;;;5038288;28;7993;-67
2023/04/04 16:10:43;;;;;;;;;;;;;;;;;;5037334;28;7034;-67
2023/04/04 16:13:10;;;;;;;;;;;;;;;;;;5035807;28;6908;-67
2023/04/04 16:15:42;;;;;;;;;;;;;;;;;;5058425;28;6813;-67
2023/04/04 16:18:08;;;;;;;;;;;;;;;;;;5018203;28;7609;-66
2023/04/04 16:20:33;;;;;;;;;;;;;;;;;;5018742;28;7352;-67
2023/04/04 16:23:25;;;;;;;;;;;;;;;;;;5018163;28;8177;-67
2023/04/04 16:25:51;;;;;;;;;;;;;;;;;;5018135;28;7207;-67
2023/04/04 16:28:32;;;;;;;;;;;;;;;;;;5018286;28;7069;-67
2023/04/04 16:30:59;;;;;;;;;;;;;;;;;;5032232;28;6953;-66
2023/04/04 16:33:24;;;;;;;;;;;;;;;;;;5038090;28;7304;-67
2023/04/04 16:35:50;;;;;;;;;;;;;;;;;;5034373;28;7291;-66
2023/04/04 16:38:16;;;;;;;;;;;;;;;;;;5037864;28;7134;-66
2023/04/04 16:40:42;;;;;;;;;;;;;;;;;;5038006;28;6960;-67
2023/04/04 16:43:16;;;;;;;;;;;;;;;;;;5037984;28;7128;-67
2023/04/04 16:45:42;;;;;;;;;;;;;;;;;;5026288;28;6818;-67
2023/04/04 16:54:07;;;;;;;;;;;;;;;;;;5026868;28;7037;-67
2023/04/04 16:56:32;;;;;;;;;;;;;;;;;;5037606;28;7203;-67
2023/04/04 16:59:22;;;;;;;;;;;;;;;;;;5037568;28;7533;-67
2023/04/04 17:01:47;;;;;;;;;;;;;;;;;;5037343;28;7210;-67
2023/04/04 17:04:14;;;;;;;;;;;;;;;;;;5037561;28;7149;-67
2023/04/04 17:06:40;;;;;;;;;;;;;;;;;;5036857;28;6967;-67
2023/04/04 17:09:28;;;;;;;;;;;;;;;;;;5030552;28;7190;-67
2023/04/04 17:11:56;;;;;;;;;;;;;;;;;;5017419;28;7220;-67
2023/04/04 17:14:22;;;;;;;;;;;;;;;;;;5023172;28;7132;-67
2023/04/04 17:17:16;;;;;;;;;;;;;;;;;;5037396;28;7165;-67
2023/04/04 17:19:41;;;;;;;;;;;;;;;;;;5037534;28;6962;-67
2023/04/04 17:22:07;;;;;;;;;;;;;;;;;;5037284;28;7337;-67
2023/04/04 17:24:43;;;;;;;;;;;;;;;;;;5037225;28;7012;-67
2023/04/04 17:27:09;;;;;;;;;;;;;;;;;;5036032;28;7039;-67
2023/04/04 17:29:34;;;;;;;;;;;;;;;;;;5019329;28;7048;-67
2023/04/04 17:32:00;;;;;;;;;;;;;;;;;;5017218;28;7151;-67
2023/04/04 17:34:27;;;;;;;;;;;;;;;;;;5018488;28;7009;-67
2023/04/04 17:36:53;;;;;;;;;;;;;;;;;;5017065;28;7058;-67
2023/04/04 17:39:55;;;;;;;;;;;;;;;;;;5024805;28;7162;-67
2023/04/04 17:42:20;;;;;;;;;;;;;;;;;;5036920;28;7411;-67
2023/04/04 17:44:46;;;;;;;;;;;;;;;;;;5037232;28;6838;-67
2023/04/04 17:47:12;;;;;;;;;;;;;;;;;;5036710;28;7524;-67
2023/04/04 17:49:38;;;;;;;;;;;;;;;;;;5036722;28;6925;-67
2023/04/04 17:52:05;;;;;;;;;;;;;;;;;;5036617;28;7073;-67
2023/04/04 17:54:30;;;;;;;;;;;;;;;;;;5041683;28;7281;-67
2023/04/04 17:57:02;;;;;;;;;;;;;;;;;;5032011;28;7157;-67
2023/04/04 17:59:27;;;;;;;;;;;;;;;;;;5017141;28;7169;-67
2023/04/04 18:02:11;;;;;;;;;;;;;;;;;;5018739;28;7125;-67
2023/04/04 18:04:37;;;;;;;;;;;;;;;;;;5016366;28;7198;-67
2023/04/04 18:07:05;;;;;;;;;;;;;;;;;;5016505;28;7372;-67
2023/04/04 18:09:45;;;;;;;;;;;;;;;;;;5016525;28;7153;-67
2023/04/04 18:12:11;;;;;;;;;;;;;;;;;;5028356;28;7029;-67
2023/04/04 18:14:37;;;;;;;;;;;;;;;;;;5034888;28;8508;-67
2023/04/04 18:17:02;;;;;;;;;;;;;;;;;;5036109;28;7185;-66
2023/04/04 18:19:29;;;;;;;;;;;;;;;;;;5035245;28;7154;-66
2023/04/04 18:21:58;;;;;;;;;;;;;;;;;;5035833;28;6814;-67
2023/04/04 18:24:25;;;;;;;;;;;;;;;;;;5034904;28;7040;-67
2023/04/04 18:29:54;;;;;;;;;;;;;;;;;;5035825;28;6985;-67
2023/04/04 18:32:24;;;;;;;;;;;;;;;;;;5035875;28;7147;-66
2023/04/04 18:34:58;;;;;;;;;;;;;;;;;;5017178;28;7195;-66
2023/04/04 18:37:24;;;;;;;;;;;;;;;;;;5015992;28;7011;-67
2023/04/04 18:39:49;;;;;;;;;;;;;;;;;;5016082;28;7248;-67
2023/04/04 18:42:43;;;;;;;;;;;;;;;;;;5019866;28;7172;-67
2023/04/04 18:45:09;;;;;;;;;;;;;;;;;;5035641;28;7246;-67
2023/04/04 18:47:35;;;;;;;;;;;;;;;;;;5034333;28;7211;-67
2023/04/04 18:50:01;;;;;;;;;;;;;;;;;;5035178;28;7290;-67
2023/04/04 18:52:27;;;;;;;;;;;;;;;;;;5035105;28;7190;-66
2023/04/04 18:57:56;;;;;;;;;;;;;;;;;;5035342;28;6673;-66
2023/04/04 19:00:44;;;;;;;;;;;;;;;;;;5035070;28;7156;-67
2023/04/04 19:03:10;;;;;;;;;;;;;;;;;;5035793;28;7151;-66
2023/04/04 19:08:32;;;;;;;;;;;;;;;;;;5035311;28;6805;-66
2023/04/04 19:10:58;;;;;;;;;;;;;;;;;;5035164;28;7466;-67
2023/04/04 19:16:17;;;;;;;;;;;;;;;;;;5035519;28;6922;-66
2023/04/04 19:18:44;;;;;;;;;;;;;;;;;;5030242;28;9042;-66
2023/04/04 19:21:10;;;;;;;;;;;;;;;;;;5015330;28;7177;-67
2023/04/04 19:23:49;;;;;;;;;;;;;;;;;;5015229;28;7303;-67
2023/04/04 19:26:14;;;;;;;;;;;;;;;;;;5014982;28;6933;-67
2023/04/04 19:28:45;;;;;;;;;;;;;;;;;;5015085;28;7142;-67
2023/04/04 19:34:14;;;;;;;;;;;;;;;;;;5101871;23;7432;-69
2023/04/04 19:36:40;;;;;;;;;;;;;;;;;;5024505;28;7167;-71
2023/04/04 19:39:10;;;;;;;;;;;;;;;;;;5052984;28;6987;-72
2023/04/04 19:42:00;;;;;;;;;;;;;;;;;;5036729;28;6888;-73
2023/04/04 19:44:26;;;;;;;;;;;;;;;;;;5054604;28;7175;-72
2023/04/04 19:46:52;;;;;;;;;;;;;;;;;;5054377;28;7272;-72
2023/04/04 19:49:21;;;;;;;;;;;;;;;;;;5052304;28;7059;-67
2023/04/04 19:52:05;;;;;;;;;;;;;;;;;;5046964;28;7200;-67
2023/04/04 19:54:33;;;;;;;;;;;;;;;;;;5054150;28;7067;-67
2023/04/04 19:57:32;;;;;;;;;;;;;;;;;;5054112;28;6994;-67
2023/04/04 20:00:02;;;;;;;;;;;;;;;;;;5041173;28;7263;-67
2023/04/04 20:02:33;;;;;;;;;;;;;;;;;;5054046;28;6989;-67
2023/04/04 20:08:05;;;;;;;;;;;;;;;;;;5034184;28;6708;-67
2023/04/04 20:10:35;;;;;;;;;;;;;;;;;;5034164;28;7200;-67
2023/04/04 20:13:05;;;;;;;;;;;;;;;;;;5037854;28;7107;-67
2023/04/04 20:15:43;;;;;;;;;;;;;;;;;;5037002;28;7161;-67
2023/04/04 20:18:36;;;;;;;;;;;;;;;;;;5034146;28;7157;-67
2023/04/04 20:21:05;;;;;;;;;;;;;;;;;;5034490;28;7149;-67
2023/04/04 20:23:58;;;;;;;;;;;;;;;;;;5034386;28;7116;-67
2023/04/04 20:29:40;;;;;;;;;;;;;;;;;;5032619;28;6804;-67
2023/04/04 20:32:14;;;;;;;;;;;;;;;;;;5032401;28;7040;-67
2023/04/04 20:35:11;;;;;;;;;;;;;;;;;;5055991;28;6888;-67
2023/04/04 20:37:36;;;;;;;;;;;;;;;;;;5067214;28;7085;-67
2023/04/04 20:40:25;;;;;;;;;;;;;;;;;;5037037;28;7191;-67
2023/04/04 20:42:53;;;;;;;;;;;;;;;;;;5047513;28;7218;-67
2023/04/04 20:48:44;;;;;;;;;;;;;;;;;;5029654;28;7073;-67